sensor_id;sensor_type;location;lat;lon;timestamp;pressure;altitude;pressure_sealevel;temperature;humidity
60355;BME280;46198;51.464;-0.066;2024-02-23T00:01:16;98609.56;;;3.48;100.00
60355;BME280;46198;51.464;-0.066;2024-02-23T00:03:44;98612.56;;;3.40;100.00
60355;BME280;46198;51.464;-0.066;2024-02-23T00:06:12;98610.09;;;3.39;100.00
60355;BME280;46198;51.464;-0.066;2024-02-23T00:08:41;98604.88;;;3.44;100.00
60355;BME280;46198;51.464;-0.066;2024-02-23T00:11:09;98596.03;;;3.43;100.00
60355;BME280;46198;51.464;-0.066;2024-02-23T00:13:37;98598.09;;;3.41;100.00
60355;BME280;46198;51.464;-0.066;2024-02-23T00:16:05;98585.75;;;3.40;100.00
60355;BME280;46198;51.464;-0.066;2024-02-23T00:18:35;98590.06;;;3.41;100.00
60355;BME280;46198;51.464;-0.066;2024-02-23T00:21:03;98588.78;;;3.44;100.00
60355;BME280;46198;51.464;-0.066;2024-02-23T00:23:31;98579.78;;;3.38;100.00
60355;BME280;46198;51.464;-0.066;2024-02-23T00:25:59;98579.66;;;3.33;100.00
60355;BME280;46198;51.464;-0.066;2024-02-23T00:28:27;98578.84;;;3.32;100.00
60355;BME280;46198;51.464;-0.066;2024-02-23T00:30:55;98572.56;;;3.39;100.00
60355;BME280;46198;51.464;-0.066;2024-02-23T00:33:23;98573.28;;;3.46;100.00
60355;BME280;46198;51.464;-0.066;2024-02-23T00:35:53;98570.25;;;3.42;100.00
60355;BME280;46198;51.464;-0.066;2024-02-23T00:38:21;98581.56;;;3.44;100.00
60355;BME280;46198;51.464;-0.066;2024-02-23T00:40:50;98563.38;;;3.46;100.00
60355;BME280;46198;51.464;-0.066;2024-02-23T00:43:18;98562.31;;;3.47;100.00
60355;BME280;46198;51.464;-0.066;2024-02-23T00:45:46;98573.03;;;3.47;100.00
60355;BME280;46198;51.464;-0.066;2024-02-23T00:48:14;98556.25;;;3.52;100.00
60355;BME280;46198;51.464;-0.066;2024-02-23T00:50:42;98565.38;;;3.51;100.00
60355;BME280;46198;51.464;-0.066;2024-02-23T00:53:12;98561.75;;;3.45;100.00
60355;BME280;46198;51.464;-0.066;2024-02-23T00:55:40;98554.97;;;3.54;100.00
60355;BME280;46198;51.464;-0.066;2024-02-23T00:58:08;98560.00;;;3.51;100.00
60355;BME280;46198;51.464;-0.066;2024-02-23T01:00:35;98558.13;;;3.51;100.00
60355;BME280;46198;51.464;-0.066;2024-02-23T01:03:04;98553.72;;;3.57;100.00
60355;BME280;46198;51.464;-0.066;2024-02-23T01:05:32;98542.03;;;3.51;100.00
60355;BME280;46198;51.464;-0.066;2024-02-23T01:08:00;98538.75;;;3.49;100.00
60355;BME280;46198;51.464;-0.066;2024-02-23T01:10:29;98541.22;;;3.51;100.00
60355;BME280;46198;51.464;-0.066;2024-02-23T01:12:57;98542.63;;;3.53;100.00
60355;BME280;46198;51.464;-0.066;2024-02-23T01:15:25;98539.59;;;3.62;100.00
60355;BME280;46198;51.464;-0.066;2024-02-23T01:17:53;98532.59;;;3.61;100.00
60355;BME280;46198;51.464;-0.066;2024-02-23T01:20:23;98527.69;;;3.58;100.00
60355;BME280;46198;51.464;-0.066;2024-02-23T01:22:51;98519.75;;;3.63;100.00
60355;BME280;46198;51.464;-0.066;2024-02-23T01:25:19;98518.59;;;3.59;100.00
60355;BME280;46198;51.464;-0.066;2024-02-23T01:27:48;98521.84;;;3.61;100.00
60355;BME280;46198;51.464;-0.066;2024-02-23T01:30:16;98515.94;;;3.59;100.00
60355;BME280;46198;51.464;-0.066;2024-02-23T01:32:45;98517.34;;;3.61;100.00
60355;BME280;46198;51.464;-0.066;2024-02-23T01:35:13;98508.22;;;3.62;100.00
60355;BME280;46198;51.464;-0.066;2024-02-23T01:37:41;98499.22;;;3.57;100.00
60355;BME280;46198;51.464;-0.066;2024-02-23T01:40:09;98499.44;;;3.55;100.00
60355;BME280;46198;51.464;-0.066;2024-02-23T01:42:37;98500.03;;;3.57;100.00
60355;BME280;46198;51.464;-0.066;2024-02-23T01:45:07;98498.63;;;3.54;100.00
60355;BME280;46198;51.464;-0.066;2024-02-23T01:47:35;98505.19;;;3.59;100.00
60355;BME280;46198;51.464;-0.066;2024-02-23T01:50:05;98492.59;;;3.59;100.00
60355;BME280;46198;51.464;-0.066;2024-02-23T01:52:35;98497.28;;;3.64;100.00
60355;BME280;46198;51.464;-0.066;2024-02-23T01:55:03;98486.97;;;3.61;100.00
60355;BME280;46198;51.464;-0.066;2024-02-23T01:57:31;98486.06;;;3.67;100.00
60355;BME280;46198;51.464;-0.066;2024-02-23T02:00:17;98475.56;;;3.65;100.00
60355;BME280;46198;51.464;-0.066;2024-02-23T02:02:54;98482.31;;;3.68;100.00
60355;BME280;46198;51.464;-0.066;2024-02-23T02:05:22;98472.28;;;3.63;100.00
60355;BME280;46198;51.464;-0.066;2024-02-23T02:07:51;98467.97;;;3.62;100.00
60355;BME280;46198;51.464;-0.066;2024-02-23T02:10:21;98457.44;;;3.61;100.00
60355;BME280;46198;51.464;-0.066;2024-02-23T02:12:49;98456.91;;;3.59;100.00
60355;BME280;46198;51.464;-0.066;2024-02-23T02:15:18;98453.59;;;3.68;100.00
60355;BME280;46198;51.464;-0.066;2024-02-23T02:17:48;98450.72;;;3.70;100.00
60355;BME280;46198;51.464;-0.066;2024-02-23T02:20:16;98449.78;;;3.64;100.00
60355;BME280;46198;51.464;-0.066;2024-02-23T02:22:45;98446.28;;;3.64;100.00
60355;BME280;46198;51.464;-0.066;2024-02-23T02:25:13;98441.00;;;3.69;100.00
60355;BME280;46198;51.464;-0.066;2024-02-23T02:27:42;98433.31;;;3.72;100.00
60355;BME280;46198;51.464;-0.066;2024-02-23T02:30:12;98428.19;;;3.71;100.00
60355;BME280;46198;51.464;-0.066;2024-02-23T02:32:41;98430.16;;;3.75;100.00
60355;BME280;46198;51.464;-0.066;2024-02-23T02:35:10;98415.81;;;3.70;100.00
60355;BME280;46198;51.464;-0.066;2024-02-23T02:37:38;98410.44;;;3.70;100.00
60355;BME280;46198;51.464;-0.066;2024-02-23T02:40:07;98415.94;;;3.75;100.00
60355;BME280;46198;51.464;-0.066;2024-02-23T02:42:35;98418.03;;;3.73;100.00
60355;BME280;46198;51.464;-0.066;2024-02-23T02:45:03;98403.06;;;3.77;100.00
60355;BME280;46198;51.464;-0.066;2024-02-23T02:47:31;98399.34;;;3.78;100.00
60355;BME280;46198;51.464;-0.066;2024-02-23T02:50:01;98388.72;;;3.83;100.00
60355;BME280;46198;51.464;-0.066;2024-02-23T02:52:29;98382.88;;;3.74;100.00
60355;BME280;46198;51.464;-0.066;2024-02-23T02:54:57;98383.38;;;3.83;100.00
60355;BME280;46198;51.464;-0.066;2024-02-23T02:57:25;98381.16;;;3.80;100.00
60355;BME280;46198;51.464;-0.066;2024-02-23T02:59:53;98392.56;;;3.87;100.00
60355;BME280;46198;51.464;-0.066;2024-02-23T03:02:21;98395.13;;;3.94;100.00
60355;BME280;46198;51.464;-0.066;2024-02-23T03:04:49;98394.41;;;3.98;100.00
60355;BME280;46198;51.464;-0.066;2024-02-23T03:07:18;98391.81;;;4.04;100.00
60355;BME280;46198;51.464;-0.066;2024-02-23T03:09:46;98382.16;;;4.03;100.00
60355;BME280;46198;51.464;-0.066;2024-02-23T03:12:15;98376.53;;;4.04;100.00
60355;BME280;46198;51.464;-0.066;2024-02-23T03:14:43;98372.06;;;4.10;100.00
60355;BME280;46198;51.464;-0.066;2024-02-23T03:17:11;98377.81;;;4.02;100.00
60355;BME280;46198;51.464;-0.066;2024-02-23T03:19:40;98361.69;;;4.02;100.00
60355;BME280;46198;51.464;-0.066;2024-02-23T03:22:08;98360.78;;;4.08;100.00
60355;BME280;46198;51.464;-0.066;2024-02-23T03:24:37;98360.78;;;4.08;100.00
60355;BME280;46198;51.464;-0.066;2024-02-23T03:27:11;98349.94;;;4.03;100.00
60355;BME280;46198;51.464;-0.066;2024-02-23T03:29:39;98347.72;;;3.99;100.00
60355;BME280;46198;51.464;-0.066;2024-02-23T03:32:07;98338.13;;;4.04;100.00
60355;BME280;46198;51.464;-0.066;2024-02-23T03:34:36;98336.97;;;3.99;100.00
60355;BME280;46198;51.464;-0.066;2024-02-23T03:37:04;98332.16;;;4.02;100.00
60355;BME280;46198;51.464;-0.066;2024-02-23T03:39:37;98330.75;;;4.11;100.00
60355;BME280;46198;51.464;-0.066;2024-02-23T03:42:06;98330.75;;;4.11;100.00
60355;BME280;46198;51.464;-0.066;2024-02-23T03:44:34;98327.47;;;4.09;100.00
60355;BME280;46198;51.464;-0.066;2024-02-23T03:47:02;98328.56;;;4.08;100.00
60355;BME280;46198;51.464;-0.066;2024-02-23T03:49:38;98328.56;;;4.08;100.00
60355;BME280;46198;51.464;-0.066;2024-02-23T03:52:05;98320.13;;;4.04;100.00
60355;BME280;46198;51.464;-0.066;2024-02-23T03:54:33;98320.00;;;4.11;100.00
60355;BME280;46198;51.464;-0.066;2024-02-23T03:57:03;98321.53;;;4.07;100.00
60355;BME280;46198;51.464;-0.066;2024-02-23T03:59:35;98326.34;;;4.05;100.00
60355;BME280;46198;51.464;-0.066;2024-02-23T04:02:04;98326.72;;;3.96;100.00
60355;BME280;46198;51.464;-0.066;2024-02-23T04:04:33;98329.03;;;4.05;100.00
60355;BME280;46198;51.464;-0.066;2024-02-23T04:07:01;98334.97;;;4.07;100.00
60355;BME280;46198;51.464;-0.066;2024-02-23T04:09:29;98334.47;;;4.10;100.00
60355;BME280;46198;51.464;-0.066;2024-02-23T04:11:57;98330.88;;;4.04;100.00
60355;BME280;46198;51.464;-0.066;2024-02-23T04:14:26;98330.16;;;4.09;100.00
60355;BME280;46198;51.464;-0.066;2024-02-23T04:16:54;98338.47;;;4.07;100.00
60355;BME280;46198;51.464;-0.066;2024-02-23T04:19:22;98342.47;;;4.05;100.00
60355;BME280;46198;51.464;-0.066;2024-02-23T04:21:51;98342.09;;;4.13;100.00
60355;BME280;46198;51.464;-0.066;2024-02-23T04:24:19;98345.41;;;4.20;100.00
60355;BME280;46198;51.464;-0.066;2024-02-23T04:26:49;98334.84;;;4.13;100.00
60355;BME280;46198;51.464;-0.066;2024-02-23T04:29:17;98339.47;;;4.18;100.00
60355;BME280;46198;51.464;-0.066;2024-02-23T04:31:47;98344.47;;;4.26;100.00
60355;BME280;46198;51.464;-0.066;2024-02-23T04:34:18;98340.97;;;4.26;100.00
60355;BME280;46198;51.464;-0.066;2024-02-23T04:36:46;98330.56;;;4.29;100.00
60355;BME280;46198;51.464;-0.066;2024-02-23T04:39:14;98339.19;;;4.31;100.00
60355;BME280;46198;51.464;-0.066;2024-02-23T04:41:43;98342.88;;;4.42;100.00
60355;BME280;46198;51.464;-0.066;2024-02-23T04:44:11;98344.53;;;4.43;100.00
60355;BME280;46198;51.464;-0.066;2024-02-23T04:46:39;98342.63;;;4.43;100.00
60355;BME280;46198;51.464;-0.066;2024-02-23T04:49:08;98338.41;;;4.48;100.00
60355;BME280;46198;51.464;-0.066;2024-02-23T04:51:38;98351.03;;;4.47;100.00
60355;BME280;46198;51.464;-0.066;2024-02-23T04:54:06;98356.28;;;4.54;100.00
60355;BME280;46198;51.464;-0.066;2024-02-23T04:56:34;98355.19;;;4.55;100.00
60355;BME280;46198;51.464;-0.066;2024-02-23T04:59:02;98356.91;;;4.61;100.00
60355;BME280;46198;51.464;-0.066;2024-02-23T05:01:34;98361.75;;;4.59;100.00
60355;BME280;46198;51.464;-0.066;2024-02-23T05:04:02;98369.81;;;4.59;100.00
60355;BME280;46198;51.464;-0.066;2024-02-23T05:06:32;98372.00;;;4.62;100.00
60355;BME280;46198;51.464;-0.066;2024-02-23T05:09:00;98381.28;;;4.71;100.00
60355;BME280;46198;51.464;-0.066;2024-02-23T05:11:28;98386.47;;;4.61;100.00
60355;BME280;46198;51.464;-0.066;2024-02-23T05:13:56;98397.22;;;4.61;100.00
60355;BME280;46198;51.464;-0.066;2024-02-23T05:16:24;98390.06;;;4.66;100.00
60355;BME280;46198;51.464;-0.066;2024-02-23T05:18:52;98396.75;;;4.64;100.00
60355;BME280;46198;51.464;-0.066;2024-02-23T05:21:23;98393.34;;;4.69;100.00
60355;BME280;46198;51.464;-0.066;2024-02-23T05:23:54;98390.34;;;4.65;100.00
60355;BME280;46198;51.464;-0.066;2024-02-23T05:26:22;98398.13;;;4.66;100.00
60355;BME280;46198;51.464;-0.066;2024-02-23T05:28:52;98394.91;;;4.64;100.00
60355;BME280;46198;51.464;-0.066;2024-02-23T05:31:20;98393.91;;;4.71;100.00
60355;BME280;46198;51.464;-0.066;2024-02-23T05:33:48;98412.16;;;4.69;100.00
60355;BME280;46198;51.464;-0.066;2024-02-23T05:36:16;98403.59;;;4.72;100.00
60355;BME280;46198;51.464;-0.066;2024-02-23T05:38:45;98401.41;;;4.69;100.00
60355;BME280;46198;51.464;-0.066;2024-02-23T05:41:14;98408.16;;;4.71;100.00
60355;BME280;46198;51.464;-0.066;2024-02-23T05:43:42;98406.88;;;4.74;100.00
60355;BME280;46198;51.464;-0.066;2024-02-23T05:46:10;98406.66;;;4.75;100.00
60355;BME280;46198;51.464;-0.066;2024-02-23T05:48:38;98404.34;;;4.67;100.00
60355;BME280;46198;51.464;-0.066;2024-02-23T05:51:06;98405.47;;;4.71;100.00
60355;BME280;46198;51.464;-0.066;2024-02-23T05:53:34;98413.44;;;4.66;100.00
60355;BME280;46198;51.464;-0.066;2024-02-23T05:56:02;98406.47;;;4.65;100.00
60355;BME280;46198;51.464;-0.066;2024-02-23T05:58:32;98409.94;;;4.65;100.00
60355;BME280;46198;51.464;-0.066;2024-02-23T06:01:00;98413.13;;;4.62;100.00
60355;BME280;46198;51.464;-0.066;2024-02-23T06:03:28;98419.47;;;4.56;100.00
60355;BME280;46198;51.464;-0.066;2024-02-23T06:05:56;98425.56;;;4.52;100.00
60355;BME280;46198;51.464;-0.066;2024-02-23T06:08:24;98427.81;;;4.43;100.00
60355;BME280;46198;51.464;-0.066;2024-02-23T06:10:53;98425.94;;;4.43;100.00
60355;BME280;46198;51.464;-0.066;2024-02-23T06:13:21;98433.41;;;4.41;100.00
60355;BME280;46198;51.464;-0.066;2024-02-23T06:15:51;98422.56;;;4.36;100.00
60355;BME280;46198;51.464;-0.066;2024-02-23T06:18:18;98434.84;;;4.32;100.00
60355;BME280;46198;51.464;-0.066;2024-02-23T06:20:47;98430.50;;;4.31;100.00
60355;BME280;46198;51.464;-0.066;2024-02-23T06:23:15;98427.75;;;4.26;100.00
60355;BME280;46198;51.464;-0.066;2024-02-23T06:25:43;98440.59;;;4.24;100.00
60355;BME280;46198;51.464;-0.066;2024-02-23T06:28:13;98436.25;;;4.23;100.00
60355;BME280;46198;51.464;-0.066;2024-02-23T06:30:41;98435.13;;;4.19;100.00
60355;BME280;46198;51.464;-0.066;2024-02-23T06:33:11;98439.56;;;4.13;100.00
60355;BME280;46198;51.464;-0.066;2024-02-23T06:35:39;98442.47;;;4.12;100.00
60355;BME280;46198;51.464;-0.066;2024-02-23T06:38:07;98446.13;;;4.06;100.00
60355;BME280;46198;51.464;-0.066;2024-02-23T06:40:36;98454.50;;;4.09;100.00
60355;BME280;46198;51.464;-0.066;2024-02-23T06:43:18;98453.69;;;4.09;100.00
60355;BME280;46198;51.464;-0.066;2024-02-23T06:45:49;98453.47;;;3.98;100.00
60355;BME280;46198;51.464;-0.066;2024-02-23T06:48:20;98463.75;;;4.02;100.00
60355;BME280;46198;51.464;-0.066;2024-02-23T06:50:48;98453.94;;;3.95;100.00
60355;BME280;46198;51.464;-0.066;2024-02-23T06:53:16;98454.41;;;3.92;100.00
60355;BME280;46198;51.464;-0.066;2024-02-23T06:55:44;98458.72;;;3.93;100.00
60355;BME280;46198;51.464;-0.066;2024-02-23T06:58:12;98460.00;;;3.91;100.00
60355;BME280;46198;51.464;-0.066;2024-02-23T07:00:41;98464.69;;;3.95;100.00
60355;BME280;46198;51.464;-0.066;2024-02-23T07:03:09;98466.78;;;3.93;100.00
60355;BME280;46198;51.464;-0.066;2024-02-23T07:05:38;98466.69;;;3.88;100.00
60355;BME280;46198;51.464;-0.066;2024-02-23T07:08:08;98467.38;;;3.84;100.00
60355;BME280;46198;51.464;-0.066;2024-02-23T07:10:36;98470.41;;;3.87;100.00
60355;BME280;46198;51.464;-0.066;2024-02-23T07:13:04;98482.78;;;3.76;100.00
60355;BME280;46198;51.464;-0.066;2024-02-23T07:15:33;98486.88;;;3.79;100.00
60355;BME280;46198;51.464;-0.066;2024-02-23T07:18:03;98482.56;;;3.78;100.00
60355;BME280;46198;51.464;-0.066;2024-02-23T07:20:31;98486.88;;;3.79;100.00
60355;BME280;46198;51.464;-0.066;2024-02-23T07:23:00;98496.56;;;3.80;100.00
60355;BME280;46198;51.464;-0.066;2024-02-23T07:25:29;98501.09;;;3.80;100.00
60355;BME280;46198;51.464;-0.066;2024-02-23T07:27:57;98510.81;;;3.81;100.00
60355;BME280;46198;51.464;-0.066;2024-02-23T07:30:25;98511.16;;;3.84;100.00
60355;BME280;46198;51.464;-0.066;2024-02-23T07:32:53;98511.75;;;3.86;100.00
60355;BME280;46198;51.464;-0.066;2024-02-23T07:35:21;98506.00;;;3.83;100.00
60355;BME280;46198;51.464;-0.066;2024-02-23T07:37:51;98512.22;;;3.83;100.00
60355;BME280;46198;51.464;-0.066;2024-02-23T07:40:20;98510.34;;;3.84;100.00
60355;BME280;46198;51.464;-0.066;2024-02-23T07:42:48;98508.69;;;3.83;100.00
60355;BME280;46198;51.464;-0.066;2024-02-23T07:45:16;98508.47;;;3.84;100.00
60355;BME280;46198;51.464;-0.066;2024-02-23T07:47:45;98505.56;;;3.86;100.00
60355;BME280;46198;51.464;-0.066;2024-02-23T07:50:13;98507.41;;;3.85;100.00
60355;BME280;46198;51.464;-0.066;2024-02-23T07:52:42;98504.38;;;3.93;100.00
60355;BME280;46198;51.464;-0.066;2024-02-23T07:55:10;98508.44;;;3.96;100.00
60355;BME280;46198;51.464;-0.066;2024-02-23T07:57:44;98499.84;;;3.94;100.00
60355;BME280;46198;51.464;-0.066;2024-02-23T08:00:12;98514.19;;;3.99;100.00
60355;BME280;46198;51.464;-0.066;2024-02-23T08:02:40;98520.03;;;3.96;100.00
60355;BME280;46198;51.464;-0.066;2024-02-23T08:05:08;98517.00;;;4.05;100.00
60355;BME280;46198;51.464;-0.066;2024-02-23T08:07:37;98521.09;;;4.07;100.00
60355;BME280;46198;51.464;-0.066;2024-02-23T08:10:05;98535.66;;;4.11;100.00
60355;BME280;46198;51.464;-0.066;2024-02-23T08:12:33;98531.22;;;4.17;100.00
60355;BME280;46198;51.464;-0.066;2024-02-23T08:15:09;98538.22;;;4.18;100.00
60355;BME280;46198;51.464;-0.066;2024-02-23T08:17:37;98536.81;;;4.27;100.00
60355;BME280;46198;51.464;-0.066;2024-02-23T08:20:05;98540.56;;;4.26;100.00
60355;BME280;46198;51.464;-0.066;2024-02-23T08:22:34;98537.88;;;4.26;100.00
60355;BME280;46198;51.464;-0.066;2024-02-23T08:25:03;98544.41;;;4.30;100.00
60355;BME280;46198;51.464;-0.066;2024-02-23T08:27:31;98562.97;;;4.43;100.00
60355;BME280;46198;51.464;-0.066;2024-02-23T08:29:59;98555.13;;;4.42;100.00
60355;BME280;46198;51.464;-0.066;2024-02-23T08:32:28;98557.59;;;4.43;100.00
60355;BME280;46198;51.464;-0.066;2024-02-23T08:34:56;98556.66;;;4.50;100.00
60355;BME280;46198;51.464;-0.066;2024-02-23T08:37:26;98556.16;;;4.53;100.00
60355;BME280;46198;51.464;-0.066;2024-02-23T08:39:54;98556.97;;;4.65;100.00
60355;BME280;46198;51.464;-0.066;2024-02-23T08:42:23;98560.81;;;4.69;100.00
60355;BME280;46198;51.464;-0.066;2024-02-23T08:44:51;98566.28;;;4.74;100.00
60355;BME280;46198;51.464;-0.066;2024-02-23T08:47:21;98563.81;;;4.84;100.00
60355;BME280;46198;51.464;-0.066;2024-02-23T08:49:51;98564.16;;;4.88;100.00
60355;BME280;46198;51.464;-0.066;2024-02-23T08:52:19;98561.56;;;4.93;100.00
60355;BME280;46198;51.464;-0.066;2024-02-23T08:54:47;98562.09;;;5.07;100.00
60355;BME280;46198;51.464;-0.066;2024-02-23T08:57:15;98561.63;;;5.10;100.00
60355;BME280;46198;51.464;-0.066;2024-02-23T08:59:46;98563.00;;;5.13;100.00
60355;BME280;46198;51.464;-0.066;2024-02-23T09:02:14;98569.88;;;5.20;100.00
60355;BME280;46198;51.464;-0.066;2024-02-23T09:04:43;98566.22;;;5.26;100.00
60355;BME280;46198;51.464;-0.066;2024-02-23T09:07:12;98568.53;;;5.34;100.00
60355;BME280;46198;51.464;-0.066;2024-02-23T09:09:41;98571.66;;;5.43;100.00
60355;BME280;46198;51.464;-0.066;2024-02-23T09:12:09;98570.81;;;5.43;100.00
60355;BME280;46198;51.464;-0.066;2024-02-23T09:14:38;98576.97;;;5.55;100.00
60355;BME280;46198;51.464;-0.066;2024-02-23T09:17:11;98574.97;;;5.62;100.00
60355;BME280;46198;51.464;-0.066;2024-02-23T09:19:40;98585.44;;;5.75;100.00
60355;BME280;46198;51.464;-0.066;2024-02-23T09:22:08;98570.56;;;5.73;100.00
60355;BME280;46198;51.464;-0.066;2024-02-23T09:24:42;98583.69;;;5.86;100.00
60355;BME280;46198;51.464;-0.066;2024-02-23T09:27:10;98580.84;;;5.93;100.00
60355;BME280;46198;51.464;-0.066;2024-02-23T09:29:40;98587.88;;;5.94;100.00
60355;BME280;46198;51.464;-0.066;2024-02-23T09:32:08;98587.47;;;6.02;100.00
60355;BME280;46198;51.464;-0.066;2024-02-23T09:34:36;98589.22;;;6.08;100.00
60355;BME280;46198;51.464;-0.066;2024-02-23T09:37:04;98591.97;;;6.13;100.00
60355;BME280;46198;51.464;-0.066;2024-02-23T09:39:37;98580.06;;;6.09;100.00
60355;BME280;46198;51.464;-0.066;2024-02-23T09:42:07;98592.47;;;6.10;100.00
60355;BME280;46198;51.464;-0.066;2024-02-23T09:44:37;98580.31;;;6.25;100.00
60355;BME280;46198;51.464;-0.066;2024-02-23T09:47:05;98577.91;;;6.28;100.00
60355;BME280;46198;51.464;-0.066;2024-02-23T09:49:40;98585.16;;;6.44;100.00
60355;BME280;46198;51.464;-0.066;2024-02-23T09:52:09;98579.56;;;6.51;100.00
60355;BME280;46198;51.464;-0.066;2024-02-23T09:54:37;98585.38;;;6.60;100.00
60355;BME280;46198;51.464;-0.066;2024-02-23T09:57:10;98586.06;;;6.72;100.00
60355;BME280;46198;51.464;-0.066;2024-02-23T09:59:38;98584.25;;;6.78;100.00
60355;BME280;46198;51.464;-0.066;2024-02-23T10:02:07;98588.59;;;6.79;100.00
60355;BME280;46198;51.464;-0.066;2024-02-23T10:04:36;98583.69;;;6.76;100.00
60355;BME280;46198;51.464;-0.066;2024-02-23T10:07:12;98588.09;;;6.82;100.00
60355;BME280;46198;51.464;-0.066;2024-02-23T10:09:42;98599.03;;;6.92;100.00
60355;BME280;46198;51.464;-0.066;2024-02-23T10:12:11;98602.41;;;7.04;100.00
60355;BME280;46198;51.464;-0.066;2024-02-23T10:14:42;98599.50;;;7.11;100.00
60355;BME280;46198;51.464;-0.066;2024-02-23T10:17:13;98603.19;;;7.05;100.00
60355;BME280;46198;51.464;-0.066;2024-02-23T10:19:41;98605.09;;;7.04;100.00
60355;BME280;46198;51.464;-0.066;2024-02-23T10:22:10;98612.50;;;7.14;100.00
60355;BME280;46198;51.464;-0.066;2024-02-23T10:24:38;98621.03;;;7.28;100.00
60355;BME280;46198;51.464;-0.066;2024-02-23T10:27:06;98611.41;;;7.37;100.00
60355;BME280;46198;51.464;-0.066;2024-02-23T10:29:42;98618.59;;;7.53;100.00
60355;BME280;46198;51.464;-0.066;2024-02-23T10:32:10;98619.16;;;7.55;100.00
60355;BME280;46198;51.464;-0.066;2024-02-23T10:34:42;98630.47;;;7.52;100.00
60355;BME280;46198;51.464;-0.066;2024-02-23T10:37:11;98621.69;;;7.40;100.00
60355;BME280;46198;51.464;-0.066;2024-02-23T10:39:39;98616.72;;;7.54;100.00
60355;BME280;46198;51.464;-0.066;2024-02-23T10:42:08;98611.25;;;7.76;100.00
60355;BME280;46198;51.464;-0.066;2024-02-23T10:44:37;98611.25;;;7.76;100.00
60355;BME280;46198;51.464;-0.066;2024-02-23T10:47:12;98613.19;;;7.81;100.00
60355;BME280;46198;51.464;-0.066;2024-02-23T10:49:40;98618.94;;;7.89;100.00
60355;BME280;46198;51.464;-0.066;2024-02-23T10:52:09;98621.78;;;8.05;100.00
60355;BME280;46198;51.464;-0.066;2024-02-23T10:54:40;98619.69;;;8.17;100.00
60355;BME280;46198;51.464;-0.066;2024-02-23T10:57:11;98615.34;;;8.11;100.00
60355;BME280;46198;51.464;-0.066;2024-02-23T10:59:44;98613.91;;;8.35;100.00
60355;BME280;46198;51.464;-0.066;2024-02-23T11:02:14;98614.97;;;8.34;100.00
60355;BME280;46198;51.464;-0.066;2024-02-23T11:04:44;98623.16;;;8.39;100.00
60355;BME280;46198;51.464;-0.066;2024-02-23T11:07:18;98619.06;;;8.37;100.00
60355;BME280;46198;51.464;-0.066;2024-02-23T11:09:48;98613.31;;;8.60;100.00
60355;BME280;46198;51.464;-0.066;2024-02-23T11:12:22;98621.66;;;8.59;100.00
60355;BME280;46198;51.464;-0.066;2024-02-23T11:14:51;98614.16;;;8.66;100.00
60355;BME280;46198;51.464;-0.066;2024-02-23T11:17:21;98612.00;;;8.73;100.00
60355;BME280;46198;51.464;-0.066;2024-02-23T11:19:49;98617.47;;;8.83;100.00
60355;BME280;46198;51.464;-0.066;2024-02-23T11:22:23;98606.13;;;8.86;100.00
60355;BME280;46198;51.464;-0.066;2024-02-23T11:25:03;98607.06;;;9.13;100.00
60355;BME280;46198;51.464;-0.066;2024-02-23T11:27:32;98614.38;;;9.22;100.00
60355;BME280;46198;51.464;-0.066;2024-02-23T11:30:02;98618.13;;;9.11;100.00
60355;BME280;46198;51.464;-0.066;2024-02-23T11:32:38;98617.06;;;9.07;100.00
60355;BME280;46198;51.464;-0.066;2024-02-23T11:35:08;98609.50;;;9.19;100.00
60355;BME280;46198;51.464;-0.066;2024-02-23T11:37:48;98612.31;;;9.40;100.00
60355;BME280;46198;51.464;-0.066;2024-02-23T11:40:17;98611.22;;;9.41;100.00
60355;BME280;46198;51.464;-0.066;2024-02-23T11:42:46;98606.75;;;9.04;100.00
60355;BME280;46198;51.464;-0.066;2024-02-23T11:45:14;98603.78;;;9.10;100.00
60355;BME280;46198;51.464;-0.066;2024-02-23T11:47:43;98600.88;;;9.27;100.00
60355;BME280;46198;51.464;-0.066;2024-02-23T11:50:13;98602.25;;;9.35;100.00
60355;BME280;46198;51.464;-0.066;2024-02-23T11:52:41;98596.59;;;9.52;100.00
60355;BME280;46198;51.464;-0.066;2024-02-23T11:55:10;98594.44;;;9.49;100.00
60355;BME280;46198;51.464;-0.066;2024-02-23T11:57:38;98598.81;;;9.70;100.00
60355;BME280;46198;51.464;-0.066;2024-02-23T12:00:14;98596.38;;;9.64;100.00
60355;BME280;46198;51.464;-0.066;2024-02-23T12:02:44;98595.00;;;9.71;100.00
60355;BME280;46198;51.464;-0.066;2024-02-23T12:05:13;98592.84;;;9.68;100.00
60355;BME280;46198;51.464;-0.066;2024-02-23T12:07:41;98603.69;;;9.58;100.00
60355;BME280;46198;51.464;-0.066;2024-02-23T12:10:13;98596.59;;;9.52;100.00
60355;BME280;46198;51.464;-0.066;2024-02-23T12:12:41;98596.91;;;9.56;100.00
60355;BME280;46198;51.464;-0.066;2024-02-23T12:15:09;98586.00;;;9.30;100.00
60355;BME280;46198;51.464;-0.066;2024-02-23T12:17:37;98592.81;;;9.48;100.00
60355;BME280;46198;51.464;-0.066;2024-02-23T12:20:15;98596.84;;;9.35;100.00
60355;BME280;46198;51.464;-0.066;2024-02-23T12:22:44;98588.19;;;9.43;100.00
60355;BME280;46198;51.464;-0.066;2024-02-23T12:25:12;98581.66;;;9.29;100.00
60355;BME280;46198;51.464;-0.066;2024-02-23T12:27:42;98588.47;;;9.47;100.00
60355;BME280;46198;51.464;-0.066;2024-02-23T12:30:12;98592.25;;;9.41;100.00
60355;BME280;46198;51.464;-0.066;2024-02-23T12:32:41;98593.25;;;9.19;100.00
60355;BME280;46198;51.464;-0.066;2024-02-23T12:35:10;98600.31;;;9.20;100.00
60355;BME280;46198;51.464;-0.066;2024-02-23T12:37:40;98594.06;;;9.15;100.00
60355;BME280;46198;51.464;-0.066;2024-02-23T12:40:11;98594.91;;;9.20;100.00
60355;BME280;46198;51.464;-0.066;2024-02-23T12:42:39;98597.69;;;9.46;100.00
60355;BME280;46198;51.464;-0.066;2024-02-23T12:45:08;98595.03;;;9.66;100.00
60355;BME280;46198;51.464;-0.066;2024-02-23T12:47:36;98589.34;;;9.88;100.00
60355;BME280;46198;51.464;-0.066;2024-02-23T12:50:06;98599.63;;;9.81;100.00
60355;BME280;46198;51.464;-0.066;2024-02-23T12:52:34;98592.31;;;9.82;100.00
60355;BME280;46198;51.464;-0.066;2024-02-23T12:55:04;98593.41;;;10.01;100.00
60355;BME280;46198;51.464;-0.066;2024-02-23T12:57:33;98581.47;;;9.92;100.00
60355;BME280;46198;51.464;-0.066;2024-02-23T13:00:01;98590.69;;;9.96;100.00